Time;durP1;ratioP1;P1;durP2;ratioP2;P2;SDS_P1;SDS_P2;PMS_P1;PMS_P2;Temp;Humidity;BMP_temperature;BMP_pressure;BME280_temperature;BME280_humidity;BME280_pressure;Samples;Min_cycle;Max_cycle;Signal;HPM_P1;HPM_P2
2021/03/30 00:01:09;;;;;;;17.93;9.47;;;12.10;99.90;;;;;;5137545;27;20179;-68
2021/03/30 00:03:35;;;;;;;16.20;9.27;;;12.00;99.90;;;;;;5136963;27;20187;-66
2021/03/30 00:06:02;;;;;;;13.40;9.35;;;12.00;99.90;;;;;;5137245;27;20175;-68
2021/03/30 00:08:27;;;;;;;17.25;8.88;;;12.00;99.90;;;;;;5136833;27;20250;-68
2021/03/30 00:10:55;;;;;;;13.33;8.93;;;11.90;99.90;;;;;;5137112;27;20636;-68
2021/03/30 00:13:21;;;;;;;17.83;8.33;;;11.80;99.90;;;;;;5118332;27;20459;-68
2021/03/30 00:15:47;;;;;;;20.93;10.70;;;11.80;99.90;;;;;;5136724;27;20450;-67
2021/03/30 00:18:13;;;;;;;15.50;9.20;;;11.70;99.90;;;;;;5136730;27;20458;-66
2021/03/30 00:20:38;;;;;;;10.27;7.87;;;11.60;99.90;;;;;;5136793;27;20415;-66
2021/03/30 00:23:04;;;;;;;16.70;9.90;;;11.60;99.90;;;;;;5136757;27;20725;-66
2021/03/30 00:25:31;;;;;;;16.48;8.73;;;11.60;99.90;;;;;;5136741;27;20179;-69
2021/03/30 00:27:56;;;;;;;12.98;8.43;;;11.50;99.90;;;;;;5136478;27;20673;-68
2021/03/30 00:30:23;;;;;;;14.63;9.47;;;11.40;99.90;;;;;;5136502;27;20182;-66
2021/03/30 00:32:49;;;;;;;14.50;9.90;;;11.30;99.90;;;;;;5136450;27;20537;-69
2021/03/30 00:35:14;;;;;;;16.07;10.20;;;11.30;99.90;;;;;;5136510;27;20190;-68
2021/03/30 00:37:40;;;;;;;19.20;9.77;;;11.30;99.90;;;;;;5136356;27;20171;-69
2021/03/30 00:40:08;;;;;;;12.57;9.60;;;11.10;99.90;;;;;;5136458;27;20651;-66
2021/03/30 00:42:34;;;;;;;17.73;10.35;;;11.00;99.90;;;;;;5136064;27;20171;-68
2021/03/30 00:45:00;;;;;;;14.40;9.70;;;10.90;99.90;;;;;;5136264;27;20175;-66
2021/03/30 00:47:28;;;;;;;18.10;10.23;;;11.00;99.90;;;;;;5117539;27;20227;-68
2021/03/30 00:49:55;;;;;;;14.10;8.52;;;11.00;99.90;;;;;;5135942;27;20507;-69
2021/03/30 00:52:21;;;;;;;16.70;9.65;;;11.00;99.90;;;;;;5136089;27;20625;-67
2021/03/30 00:54:47;;;;;;;22.58;10.88;;;10.90;99.90;;;;;;5135444;27;20298;-66
2021/03/30 00:57:15;;;;;;;19.10;11.50;;;10.90;99.90;;;;;;5136082;27;20194;-68
2021/03/30 00:59:40;;;;;;;18.73;11.30;;;10.90;99.90;;;;;;5117418;27;20944;-68
2021/03/30 01:02:06;;;;;;;12.03;8.60;;;10.70;99.90;;;;;;5136391;27;20232;-66
2021/03/30 01:04:32;;;;;;;15.53;10.07;;;10.70;99.90;;;;;;5135800;27;20186;-69
2021/03/30 01:06:58;;;;;;;11.00;7.23;;;10.90;99.90;;;;;;5136306;27;20176;-66
2021/03/30 01:09:33;;;;;;;14.90;10.07;;;11.00;99.90;;;;;;5135484;27;20218;-68
2021/03/30 01:12:27;;;;;;;11.02;8.13;;;11.10;99.90;;;;;;5136376;27;20182;-66
2021/03/30 01:15:12;;;;;;;12.23;7.75;;;11.10;99.90;;;;;;5135582;27;20214;-66
2021/03/30 01:17:44;;;;;;;15.27;8.85;;;11.20;99.90;;;;;;5117166;27;20163;-68
2021/03/30 01:20:34;;;;;;;14.43;10.05;;;11.20;99.90;;;;;;5135509;27;20202;-69
2021/03/30 01:23:27;;;;;;;13.35;7.35;;;11.10;99.90;;;;;;5135350;27;20201;-69
2021/03/30 01:26:25;;;;;;;11.93;8.25;;;11.10;99.90;;;;;;5135349;27;20547;-69
2021/03/30 01:29:11;;;;;;;17.00;8.70;;;11.10;99.90;;;;;;5108730;27;20256;-68
2021/03/30 01:31:39;;;;;;;11.45;7.50;;;10.90;99.90;;;;;;5135769;27;20182;-66
2021/03/30 01:34:06;;;;;;;12.70;7.30;;;10.90;99.90;;;;;;5135231;27;20187;-66
2021/03/30 01:36:36;;;;;;;11.75;8.30;;;11.00;99.90;;;;;;5117070;27;20530;-68
2021/03/30 01:39:02;;;;;;;20.73;9.48;;;11.10;99.90;;;;;;5116777;27;20187;-66
2021/03/30 01:41:29;;;;;;;13.18;7.88;;;11.00;99.90;;;;;;5135489;27;20179;-66
2021/03/30 01:43:56;;;;;;;16.35;8.93;;;10.90;99.90;;;;;;5135141;27;20191;-67
2021/03/30 01:46:22;;;;;;;16.73;7.60;;;10.90;99.90;;;;;;5135126;27;20222;-69
2021/03/30 01:48:48;;;;;;;15.75;9.82;;;11.00;99.90;;;;;;5134917;27;20611;-69
2021/03/30 01:51:15;;;;;;;15.10;9.33;;;10.90;99.90;;;;;;5135117;27;20183;-66
2021/03/30 01:53:42;;;;;;;16.48;9.73;;;10.80;99.90;;;;;;5134953;27;20422;-68
2021/03/30 01:56:09;;;;;;;16.70;9.85;;;10.80;99.90;;;;;;5116586;27;20183;-67
2021/03/30 01:58:37;;;;;;;18.33;10.05;;;10.60;99.90;;;;;;5134904;27;20637;-66
2021/03/30 02:01:03;;;;;;;18.48;9.90;;;10.40;99.90;;;;;;5135192;27;20324;-67
2021/03/30 02:03:29;;;;;;;14.98;11.10;;;10.30;99.90;;;;;;5134839;27;20202;-66
2021/03/30 02:05:57;;;;;;;20.77;10.13;;;10.30;99.90;;;;;;5116233;27;20183;-66
2021/03/30 02:08:26;;;;;;;20.92;12.77;;;10.30;99.90;;;;;;5115643;27;20571;-68
2021/03/30 02:10:55;;;;;;;17.27;9.80;;;10.40;99.90;;;;;;5135051;27;20175;-66
2021/03/30 02:13:31;;;;;;;26.92;13.63;;;10.50;99.90;;;;;;5116272;28;20183;-66
2021/03/30 02:16:03;;;;;;;17.63;10.55;;;10.60;99.90;;;;;;5135227;28;20194;-66
2021/03/30 02:18:35;;;;;;;18.33;10.63;;;10.50;99.90;;;;;;5134737;28;20187;-69
2021/03/30 02:21:05;;;;;;;16.10;10.10;;;10.60;99.90;;;;;;5134694;28;20186;-66
2021/03/30 02:23:36;;;;;;;20.13;10.85;;;10.60;99.90;;;;;;5134585;28;20262;-68
2021/03/30 02:26:03;;;;;;;14.20;9.68;;;10.60;99.90;;;;;;5134949;28;20175;-66
2021/03/30 02:28:54;;;;;;;20.27;8.98;;;10.70;99.90;;;;;;5134623;28;20683;-69
2021/03/30 02:31:40;;;;;;;14.27;9.00;;;10.60;99.90;;;;;;5135012;28;20266;-66
2021/03/30 02:34:07;;;;;;;11.70;7.88;;;10.70;99.90;;;;;;5116118;28;20190;-66
2021/03/30 02:36:33;;;;;;;17.77;10.23;;;10.70;99.90;;;;;;5116115;28;20191;-67
2021/03/30 02:39:05;;;;;;;13.32;8.45;;;10.80;99.90;;;;;;5134557;28;20183;-66
2021/03/30 02:41:30;;;;;;;12.15;8.50;;;10.80;99.90;;;;;;5134829;28;20227;-68
2021/03/30 02:43:58;;;;;;;16.00;9.70;;;10.80;99.90;;;;;;5134436;28;20684;-68
2021/03/30 02:46:25;;;;;;;15.90;9.77;;;10.90;99.90;;;;;;5134474;28;20463;-66
2021/03/30 02:48:53;;;;;;;18.75;11.48;;;10.80;99.90;;;;;;5134279;28;20217;-68
2021/03/30 02:51:23;;;;;;;11.77;8.25;;;10.80;99.90;;;;;;5134343;28;20260;-66
2021/03/30 02:53:50;;;;;;;19.73;9.77;;;10.70;99.90;;;;;;5134261;28;20216;-66
2021/03/30 02:56:16;;;;;;;14.63;8.95;;;10.60;99.90;;;;;;5134731;28;20604;-69
2021/03/30 02:58:43;;;;;;;16.10;10.00;;;10.70;99.90;;;;;;5134243;28;20202;-68
2021/03/30 03:01:10;;;;;;;15.85;6.85;;;10.80;99.90;;;;;;5134532;28;20176;-67
2021/03/30 03:03:36;;;;;;;14.30;9.50;;;10.90;99.90;;;;;;5134200;28;20289;-68
2021/03/30 03:06:03;;;;;;;12.57;9.20;;;10.90;99.90;;;;;;5115961;28;20199;-68
2021/03/30 03:08:30;;;;;;;16.60;9.40;;;10.80;99.90;;;;;;5115603;28;20218;-66
2021/03/30 03:10:58;;;;;;;14.30;8.95;;;10.90;99.90;;;;;;5134513;28;20175;-69
2021/03/30 03:13:25;;;;;;;13.20;8.75;;;11.00;99.90;;;;;;5115772;28;20253;-66
2021/03/30 03:15:50;;;;;;;16.88;9.27;;;10.90;99.90;;;;;;5134260;28;20175;-66
2021/03/30 03:18:16;;;;;;;15.73;9.40;;;11.00;99.90;;;;;;5134919;27;20830;-67
2021/03/30 03:20:46;;;;;;;15.37;8.43;;;11.00;99.90;;;;;;5138064;27;20206;-68
2021/03/30 03:23:13;;;;;;;12.93;8.10;;;11.00;99.90;;;;;;5137872;27;20239;-66
2021/03/30 03:25:38;;;;;;;11.90;8.18;;;11.00;99.90;;;;;;5137960;27;20258;-67
2021/03/30 03:28:04;;;;;;;10.90;9.17;;;11.00;99.90;;;;;;5137672;27;20236;-69
2021/03/30 03:30:31;;;;;;;18.80;9.07;;;11.00;99.90;;;;;;5137747;27;20202;-69
2021/03/30 03:33:08;;;;;;;9.88;7.90;;;11.00;99.90;;;;;;5137623;27;20946;-66
2021/03/30 03:35:34;;;;;;;12.38;9.38;;;11.00;99.90;;;;;;5137769;27;20526;-69
2021/03/30 03:38:02;;;;;;;10.68;7.47;;;11.00;99.90;;;;;;5119137;27;20198;-66
2021/03/30 03:40:28;;;;;;;15.65;8.25;;;11.20;99.90;;;;;;5119167;27;20555;-66
2021/03/30 03:42:54;;;;;;;14.10;7.38;;;11.20;99.90;;;;;;5137385;27;20277;-66
2021/03/30 03:45:19;;;;;;;15.10;9.00;;;11.40;99.90;;;;;;5137543;27;20203;-68
2021/03/30 03:47:45;;;;;;;12.20;8.03;;;11.30;99.90;;;;;;5119092;27;20605;-66
2021/03/30 03:50:11;;;;;;;12.00;7.73;;;11.40;99.90;;;;;;5137385;27;20221;-69
2021/03/30 03:52:40;;;;;;;11.43;7.57;;;11.30;99.90;;;;;;5137270;27;20163;-68
2021/03/30 03:55:08;;;;;;;13.95;8.32;;;11.30;99.90;;;;;;5137285;27;20639;-66
2021/03/30 03:57:47;;;;;;;13.52;9.07;;;11.40;99.90;;;;;;5137102;27;20167;-69
2021/03/30 04:00:13;;;;;;;16.30;9.73;;;11.30;99.90;;;;;;5137272;27;20206;-66
2021/03/30 04:02:51;;;;;;;19.23;9.85;;;11.40;99.90;;;;;;5136987;27;20182;-68
2021/03/30 04:05:20;;;;;;;13.15;8.70;;;11.30;99.90;;;;;;5137242;27;20756;-66
2021/03/30 04:08:00;;;;;;;13.93;8.30;;;11.30;99.90;;;;;;5136894;27;20194;-67
2021/03/30 04:10:27;;;;;;;10.80;9.07;;;11.30;99.90;;;;;;5136964;27;20187;-66
2021/03/30 04:12:54;;;;;;;13.70;10.13;;;11.20;99.90;;;;;;5136740;27;20556;-66
2021/03/30 04:15:24;;;;;;;15.15;9.15;;;11.20;99.90;;;;;;5136931;27;20176;-67
2021/03/30 04:17:50;;;;;;;14.18;8.77;;;11.20;99.90;;;;;;5136728;27;20214;-66
2021/03/30 04:20:18;;;;;;;12.23;8.95;;;11.20;99.90;;;;;;5136852;27;20171;-66
2021/03/30 04:22:47;;;;;;;17.27;9.32;;;11.20;99.90;;;;;;5136295;27;20171;-69
2021/03/30 04:25:13;;;;;;;10.50;8.10;;;11.30;99.90;;;;;;5136780;27;20167;-68
2021/03/30 04:27:39;;;;;;;14.00;8.47;;;11.30;99.90;;;;;;5118010;27;20194;-68
2021/03/30 04:30:05;;;;;;;11.70;7.37;;;11.30;99.90;;;;;;5117459;27;20199;-69
2021/03/30 04:32:31;;;;;;;13.23;8.48;;;12.00;99.90;;;;;;5136415;27;20192;-68
2021/03/30 04:34:57;;;;;;;11.27;8.20;;;12.50;99.90;;;;;;5118084;27;20243;-66
2021/03/30 04:37:22;;;;;;;12.60;7.80;;;12.60;99.90;;;;;;5136567;27;20172;-68
2021/03/30 04:39:48;;;;;;;12.47;8.87;;;13.30;99.90;;;;;;5136080;27;20191;-68
2021/03/30 04:42:13;;;;;;;13.03;7.30;;;13.50;99.90;;;;;;5136309;27;20179;-69
2021/03/30 04:44:39;;;;;;;21.63;10.27;;;13.40;99.90;;;;;;5117746;27;20223;-69
2021/03/30 04:47:05;;;;;;;13.20;8.67;;;13.30;99.90;;;;;;5117777;27;20273;-68
2021/03/30 04:49:30;;;;;;;10.40;8.07;;;13.70;99.90;;;;;;5136064;27;20215;-66
2021/03/30 04:51:56;;;;;;;10.70;7.13;;;13.60;99.90;;;;;;5117919;27;20183;-68
2021/03/30 04:54:22;;;;;;;14.13;8.10;;;13.60;99.90;;;;;;5136135;27;20183;-67
2021/03/30 04:56:48;;;;;;;10.20;8.57;;;13.60;99.90;;;;;;5136413;27;20651;-67
2021/03/30 04:59:13;;;;;;;15.02;8.93;;;12.80;99.90;;;;;;5135849;27;20511;-68
2021/03/30 05:01:39;;;;;;;13.67;9.30;;;12.60;99.90;;;;;;5136345;27;20253;-66
2021/03/30 05:04:05;;;;;;;13.87;9.07;;;12.70;99.90;;;;;;5135867;27;20216;-66
2021/03/30 05:06:31;;;;;;;12.53;7.47;;;12.60;99.90;;;;;;5136198;27;20407;-68
2021/03/30 05:08:57;;;;;;;13.57;9.50;;;12.40;99.90;;;;;;5135676;27;20211;-66
2021/03/30 05:11:23;;;;;;;14.80;9.13;;;11.50;99.90;;;;;;5136132;27;20221;-67
2021/03/30 05:13:49;;;;;;;18.00;10.17;;;11.10;99.90;;;;;;5117143;27;20227;-66
2021/03/30 05:16:15;;;;;;;22.65;10.90;;;11.00;99.90;;;;;;5135953;27;20179;-69
2021/03/30 05:18:41;;;;;;;17.00;10.90;;;11.00;99.90;;;;;;5135462;27;20183;-68
2021/03/30 05:21:07;;;;;;;24.40;13.52;;;11.00;99.90;;;;;;5135794;27;20175;-67
2021/03/30 05:23:33;;;;;;;18.20;11.40;;;11.10;99.90;;;;;;5135453;27;20191;-69
2021/03/30 05:25:59;;;;;;;18.03;9.60;;;11.10;99.90;;;;;;5117073;27;20431;-66
2021/03/30 05:28:24;;;;;;;18.57;11.70;;;11.10;99.90;;;;;;5135348;27;20202;-68
2021/03/30 05:30:50;;;;;;;18.63;9.53;;;11.00;99.90;;;;;;5135645;27;20423;-69
2021/03/30 05:33:16;;;;;;;19.73;9.83;;;11.10;99.90;;;;;;5116850;27;20203;-67
2021/03/30 05:35:41;;;;;;;15.90;11.23;;;11.10;99.90;;;;;;5135494;27;20171;-68
2021/03/30 05:38:07;;;;;;;16.60;11.90;;;11.20;99.90;;;;;;5135146;27;20194;-67
2021/03/30 05:40:33;;;;;;;27.53;9.63;;;11.10;99.90;;;;;;5135355;27;20194;-65
2021/03/30 05:42:59;;;;;;;19.93;12.37;;;11.20;99.90;;;;;;5134357;27;20202;-66
2021/03/30 05:45:24;;;;;;;15.10;9.97;;;11.30;99.90;;;;;;5116711;27;20270;-68
2021/03/30 05:47:51;;;;;;;23.30;9.63;;;11.40;99.90;;;;;;5134887;27;20447;-68
2021/03/30 05:50:19;;;;;;;12.25;9.35;;;11.40;99.90;;;;;;5135007;27;20215;-68
2021/03/30 05:53:05;;;;;;;16.83;10.63;;;11.40;99.90;;;;;;5134741;27;20198;-68
2021/03/30 05:55:34;;;;;;;16.13;11.05;;;11.40;99.90;;;;;;5116280;27;20179;-66
2021/03/30 05:58:02;;;;;;;18.48;9.88;;;11.60;99.90;;;;;;5134924;27;20230;-65
2021/03/30 06:00:29;;;;;;;20.45;12.80;;;11.70;99.90;;;;;;5113410;28;20232;-69
2021/03/30 06:02:58;;;;;;;18.42;12.63;;;11.80;99.90;;;;;;5110749;28;20225;-68
2021/03/30 06:05:24;;;;;;;18.27;13.27;;;11.80;99.90;;;;;;5112073;28;20184;-66
2021/03/30 06:07:57;;;;;;;27.60;16.33;;;11.80;99.90;;;;;;5113095;28;20240;-69
2021/03/30 06:10:24;;;;;;;16.42;13.13;;;11.80;99.90;;;;;;5102844;28;20794;-66
2021/03/30 06:12:50;;;;;;;31.10;17.60;;;11.80;99.90;;;;;;5115795;27;20274;-69
2021/03/30 06:15:16;;;;;;;30.13;20.07;;;11.70;99.90;;;;;;5130634;27;20270;-68
2021/03/30 06:17:44;;;;;;;26.00;15.97;;;11.70;99.90;;;;;;5114272;28;20175;-70
2021/03/30 06:20:12;;;;;;;23.60;12.88;;;11.80;99.90;;;;;;5131263;28;20426;-69
2021/03/30 06:22:58;;;;;;;32.50;17.48;;;11.80;99.90;;;;;;5125030;28;20175;-66
2021/03/30 06:25:50;;;;;;;19.27;11.27;;;11.90;99.90;;;;;;5097848;28;20266;-67
2021/03/30 06:28:19;;;;;;;20.48;13.05;;;11.90;99.90;;;;;;5130418;28;20194;-69
2021/03/30 06:31:02;;;;;;;19.80;12.25;;;11.90;99.90;;;;;;5117348;28;20202;-69
2021/03/30 06:33:29;;;;;;;18.48;13.95;;;12.00;99.90;;;;;;5129948;28;20207;-66
2021/03/30 06:36:12;;;;;;;20.27;14.52;;;12.20;99.90;;;;;;5128263;28;20577;-66
2021/03/30 06:39:02;;;;;;;19.45;12.65;;;12.30;99.90;;;;;;5117023;28;20226;-68
2021/03/30 06:41:51;;;;;;;15.40;10.07;;;12.40;99.90;;;;;;5111253;28;20616;-66
2021/03/30 06:46:53;;;;;;;10.57;8.57;;;12.50;99.90;;;;;;5112912;28;20684;-68
2021/03/30 06:49:20;;;;;;;14.43;9.15;;;12.50;99.90;;;;;;5101831;28;20493;-69
2021/03/30 06:51:47;;;;;;;13.50;9.82;;;12.60;99.90;;;;;;5113959;28;20272;-68
2021/03/30 06:54:13;;;;;;;15.03;7.67;;;12.70;99.90;;;;;;5122032;27;20247;-66
2021/03/30 06:56:57;;;;;;;9.10;8.13;;;12.70;99.90;;;;;;5124522;27;20466;-66
2021/03/30 06:59:24;;;;;;;12.23;8.77;;;12.70;99.90;;;;;;5128615;27;20500;-65
2021/03/30 07:01:55;;;;;;;13.35;8.35;;;12.80;99.90;;;;;;5127800;27;20971;-66
2021/03/30 07:04:21;;;;;;;12.40;7.60;;;12.80;99.90;;;;;;5117675;27;20207;-69
2021/03/30 07:06:54;;;;;;;12.70;9.57;;;12.70;99.90;;;;;;5117101;28;20412;-66
2021/03/30 07:09:21;;;;;;;15.87;11.07;;;12.70;99.90;;;;;;5118591;27;20541;-68
2021/03/30 07:11:47;;;;;;;15.30;9.67;;;12.80;99.90;;;;;;5136891;27;20419;-68
2021/03/30 07:14:13;;;;;;;16.57;8.87;;;12.80;99.90;;;;;;5119640;27;20522;-66
2021/03/30 07:16:49;;;;;;;15.70;10.17;;;12.90;99.90;;;;;;5138391;27;20823;-65
2021/03/30 07:19:17;;;;;;;21.80;10.20;;;12.90;99.90;;;;;;5135961;27;20191;-68
2021/03/30 07:21:53;;;;;;;16.17;9.60;;;12.90;99.90;;;;;;5113374;27;21054;-67
2021/03/30 07:24:28;;;;;;;22.83;10.47;;;13.00;99.90;;;;;;5105392;28;20486;-68
2021/03/30 07:27:05;;;;;;;20.00;9.30;;;13.10;99.90;;;;;;5118040;27;21288;-68
2021/03/30 07:29:42;;;;;;;15.10;10.17;;;13.10;99.90;;;;;;5121376;27;20483;-69
2021/03/30 07:32:16;;;;;;;12.90;10.10;;;13.20;99.90;;;;;;5119113;27;20485;-68
2021/03/30 07:34:48;;;;;;;14.53;8.83;;;13.20;99.90;;;;;;5126505;27;20919;-65
2021/03/30 07:37:24;;;;;;;16.70;9.67;;;13.30;99.90;;;;;;5125706;27;20427;-69
2021/03/30 07:39:54;;;;;;;13.97;8.20;;;13.20;99.90;;;;;;5125256;27;20486;-66
2021/03/30 07:42:20;;;;;;;10.30;7.50;;;13.30;99.90;;;;;;5106701;27;20416;-66
2021/03/30 07:44:49;;;;;;;14.57;9.60;;;13.30;99.90;;;;;;5115939;27;20432;-65
2021/03/30 07:47:17;;;;;;;9.60;7.50;;;13.30;99.90;;;;;;5110874;27;20526;-66
2021/03/30 07:49:50;;;;;;;12.80;8.30;;;13.30;99.90;;;;;;5130876;27;20461;-66
2021/03/30 07:52:26;;;;;;;10.20;8.00;;;13.40;99.90;;;;;;5119761;27;20459;-66
2021/03/30 07:55:20;;;;;;;15.83;8.60;;;13.40;99.90;;;;;;5122162;27;20948;-69
2021/03/30 07:58:13;;;;;;;10.23;7.77;;;13.40;99.90;;;;;;5108808;27;20452;-67
2021/03/30 08:00:38;;;;;;;10.80;7.40;;;13.50;99.90;;;;;;5120779;27;20471;-68
2021/03/30 08:03:21;;;;;;;11.83;7.67;;;13.50;99.90;;;;;;5108127;28;20996;-69
2021/03/30 08:06:17;;;;;;;10.53;8.07;;;13.50;99.90;;;;;;5126206;27;20199;-66
2021/03/30 08:08:59;;;;;;;12.27;7.27;;;13.50;99.90;;;;;;5119430;27;20564;-64
2021/03/30 08:11:43;;;;;;;9.77;7.50;;;13.60;99.90;;;;;;5127139;27;20462;-65
2021/03/30 08:14:18;;;;;;;15.60;8.83;;;13.60;99.90;;;;;;5105965;27;20455;-68
2021/03/30 08:16:47;;;;;;;17.93;9.20;;;13.80;99.90;;;;;;5129219;27;20427;-65
2021/03/30 08:19:14;;;;;;;9.40;7.60;;;13.90;99.90;;;;;;5125927;27;20533;-65
2021/03/30 08:22:05;;;;;;;14.10;8.07;;;14.00;99.90;;;;;;5124912;27;20440;-68
2021/03/30 08:24:46;;;;;;;13.47;9.13;;;14.10;99.90;;;;;;5103463;27;20463;-66
2021/03/30 08:27:30;;;;;;;10.20;6.90;;;14.30;99.90;;;;;;5121243;27;20462;-69
2021/03/30 08:29:56;;;;;;;7.30;6.00;;;14.30;99.90;;;;;;5126815;27;20483;-65
2021/03/30 08:32:22;;;;;;;7.20;5.40;;;14.40;99.90;;;;;;5124134;27;20821;-64
2021/03/30 08:34:48;;;;;;;4.47;3.83;;;14.50;99.90;;;;;;5111670;27;20210;-64
2021/03/30 08:37:15;;;;;;;4.27;3.87;;;14.70;99.90;;;;;;5123879;27;20947;-65
2021/03/30 08:39:42;;;;;;;9.47;4.40;;;14.80;99.90;;;;;;5108732;27;20729;-64
2021/03/30 08:42:14;;;;;;;4.80;3.30;;;14.80;99.90;;;;;;5128011;27;20473;-64
2021/03/30 08:44:51;;;;;;;7.70;4.20;;;14.70;99.90;;;;;;5108635;28;20455;-67
2021/03/30 08:47:43;;;;;;;6.47;4.40;;;14.80;99.90;;;;;;5122684;27;20469;-63
2021/03/30 08:50:14;;;;;;;8.33;5.20;;;15.20;99.90;;;;;;5134162;27;20484;-68
2021/03/30 08:52:40;;;;;;;6.83;4.80;;;15.10;99.90;;;;;;5128507;27;20450;-67
2021/03/30 08:55:09;;;;;;;4.57;4.17;;;15.20;99.90;;;;;;5122546;27;20419;-63
2021/03/30 08:57:36;;;;;;;8.10;4.80;;;15.30;99.90;;;;;;5135787;27;20402;-67
2021/03/30 09:00:13;;;;;;;10.50;3.93;;;15.30;99.90;;;;;;5100586;28;20503;-68
2021/03/30 09:02:38;;;;;;;5.30;4.07;;;15.40;99.90;;;;;;5130071;27;20417;-68
2021/03/30 09:05:18;;;;;;;6.77;4.40;;;15.60;99.90;;;;;;5111446;28;20436;-68
2021/03/30 09:07:46;;;;;;;6.80;4.20;;;15.70;99.90;;;;;;5107809;27;20239;-64
2021/03/30 09:10:12;;;;;;;4.83;4.10;;;16.00;99.90;;;;;;5118676;27;21006;-69
2021/03/30 09:12:38;;;;;;;5.13;3.90;;;16.00;99.90;;;;;;5122218;27;20937;-65
2021/03/30 09:15:09;;;;;;;5.13;3.90;;;16.50;99.90;;;;;;5107765;27;20427;-68
2021/03/30 09:17:35;;;;;;;5.50;3.80;;;16.40;99.90;;;;;;5114991;27;20175;-68
2021/03/30 09:20:03;;;;;;;4.27;3.87;;;16.50;99.90;;;;;;5113837;27;20792;-69
2021/03/30 09:22:44;;;;;;;4.80;3.37;;;16.80;99.90;;;;;;5119951;27;20435;-65
2021/03/30 09:28:16;;;;;;;7.47;3.80;;;16.30;99.90;;;;;;5066691;28;20457;-65
2021/03/30 09:30:43;;;;;;;3.80;2.90;;;16.50;99.90;;;;;;5105378;27;20457;-68
2021/03/30 09:33:10;;;;;;;5.20;3.30;;;16.40;99.90;;;;;;5112772;27;20510;-64
2021/03/30 09:35:35;;;;;;;4.83;3.77;;;16.80;99.90;;;;;;5117432;27;20434;-68
2021/03/30 09:38:03;;;;;;;4.70;3.70;;;16.60;99.90;;;;;;5119387;27;20504;-65
2021/03/30 09:40:36;;;;;;;4.37;3.27;;;16.40;99.90;;;;;;5118910;27;20657;-69
2021/03/30 09:43:06;;;;;;;7.27;4.00;;;16.30;99.90;;;;;;5118413;27;20605;-69
2021/03/30 09:45:34;;;;;;;4.43;3.83;;;16.40;99.90;;;;;;5125113;27;20438;-69
2021/03/30 09:48:02;;;;;;;4.60;3.50;;;16.70;99.90;;;;;;5124182;27;20952;-65
2021/03/30 09:50:29;;;;;;;4.13;2.80;;;16.90;99.90;;;;;;5118453;27;20472;-65
2021/03/30 09:53:01;;;;;;;5.90;3.70;;;17.10;99.90;;;;;;5119089;27;20953;-64
2021/03/30 09:55:31;;;;;;;7.67;4.50;;;17.90;99.90;;;;;;5114987;27;20435;-64
2021/03/30 09:58:01;;;;;;;8.70;4.83;;;17.70;99.90;;;;;;5115618;27;21076;-69
2021/03/30 10:00:29;;;;;;;5.60;3.70;;;17.30;99.90;;;;;;5118742;27;20424;-65
2021/03/30 10:02:55;;;;;;;6.90;3.70;;;17.30;99.90;;;;;;5116950;27;20443;-69
2021/03/30 10:05:20;;;;;;;6.53;3.73;;;17.80;99.90;;;;;;5096995;27;20956;-68
2021/03/30 10:07:46;;;;;;;6.50;4.70;;;17.90;99.90;;;;;;5119128;27;20672;-68
2021/03/30 10:10:13;;;;;;;4.07;3.20;;;17.40;99.90;;;;;;5116008;27;20227;-68
2021/03/30 10:12:57;;;;;;;4.90;3.30;;;17.30;99.90;;;;;;5093089;28;20172;-68
2021/03/30 10:15:40;;;;;;;5.93;4.10;;;17.50;99.90;;;;;;5095475;28;20539;-65
2021/03/30 10:18:09;;;;;;;6.70;3.90;;;17.50;99.90;;;;;;5118546;27;20467;-70
2021/03/30 10:21:05;;;;;;;8.27;5.17;;;17.90;99.90;;;;;;5120529;28;20505;-68
2021/03/30 10:23:35;;;;;;;3.70;3.40;;;19.10;99.90;;;;;;5097993;28;20459;-67
2021/03/30 10:26:30;;;;;;;8.60;6.13;;;19.20;99.90;;;;;;5096932;28;20440;-69
2021/03/30 10:29:04;;;;;;;7.27;6.47;;;18.50;99.90;;;;;;5104120;27;20485;-65
2021/03/30 10:31:41;;;;;;;11.17;6.20;;;18.60;99.90;;;;;;5125792;27;20429;-69
2021/03/30 10:34:25;;;;;;;12.30;6.57;;;19.60;99.90;;;;;;5102512;27;20479;-65
2021/03/30 10:36:53;;;;;;;7.97;6.07;;;19.00;99.90;;;;;;5127359;27;20436;-69
2021/03/30 10:39:27;;;;;;;6.73;5.70;;;19.10;99.90;;;;;;5120786;27;20955;-65
2021/03/30 10:42:08;;;;;;;5.67;4.03;;;19.50;99.90;;;;;;5126872;27;20446;-65
2021/03/30 10:44:36;;;;;;;3.50;3.20;;;19.90;99.90;;;;;;5116572;27;20457;-69
2021/03/30 10:47:23;;;;;;;3.60;2.97;;;19.70;99.90;;;;;;5114748;27;20857;-65
2021/03/30 10:49:51;;;;;;;5.60;2.60;;;20.20;99.90;;;;;;5122887;27;20466;-69
2021/03/30 10:52:23;;;;;;;4.00;3.50;;;20.60;99.90;;;;;;5118258;27;20811;-65
2021/03/30 10:54:50;;;;;;;3.77;3.00;;;20.00;98.90;;;;;;5115862;27;20500;-65
2021/03/30 10:57:17;;;;;;;6.40;4.03;;;20.50;99.10;;;;;;5123445;27;20954;-65
2021/03/30 10:59:43;;;;;;;3.70;2.80;;;19.90;98.30;;;;;;5127565;27;20991;-65
2021/03/30 11:02:11;;;;;;;4.00;3.10;;;19.70;98.70;;;;;;5120789;27;20420;-66
2021/03/30 11:04:37;;;;;;;2.57;2.37;;;20.60;98.50;;;;;;5121458;27;20981;-65
2021/03/30 11:07:04;;;;;;;5.80;3.87;;;20.80;97.10;;;;;;5124886;27;20800;-69
2021/03/30 11:09:30;;;;;;;5.13;3.90;;;20.90;95.80;;;;;;5122997;27;20518;-65
2021/03/30 11:11:56;;;;;;;3.10;2.80;;;20.80;96.90;;;;;;5104195;27;20462;-66
2021/03/30 11:14:22;;;;;;;3.50;3.13;;;20.50;95.60;;;;;;5134397;27;20286;-69
2021/03/30 11:16:48;;;;;;;3.97;2.70;;;21.10;95.10;;;;;;5123013;27;20176;-66
2021/03/30 11:19:14;;;;;;;9.30;4.33;;;21.60;94.30;;;;;;5113352;28;20431;-69
2021/03/30 11:21:40;;;;;;;4.73;3.60;;;21.70;93.20;;;;;;5119262;27;20518;-65
2021/03/30 11:24:08;;;;;;;3.90;3.23;;;21.10;93.90;;;;;;5112351;27;20424;-70
2021/03/30 11:26:36;;;;;;;6.50;4.00;;;20.90;93.90;;;;;;5108614;27;20435;-68
2021/03/30 11:29:02;;;;;;;3.13;2.63;;;20.80;94.00;;;;;;5124240;27;20468;-65
2021/03/30 11:34:06;;;;;;;3.17;2.77;;;21.40;93.60;;;;;;5115769;27;20443;-66
2021/03/30 11:36:38;;;;;;;4.30;3.63;;;21.80;92.30;;;;;;5133542;27;20626;-65
2021/03/30 11:39:04;;;;;;;5.00;3.33;;;22.30;91.40;;;;;;5126491;27;20448;-68
2021/03/30 11:41:30;;;;;;;3.87;2.93;;;22.60;85.40;;;;;;5119937;27;20878;-68
2021/03/30 11:43:55;;;;;;;4.40;3.03;;;22.70;85.90;;;;;;5121272;27;20244;-66
2021/03/30 11:46:21;;;;;;;3.27;2.93;;;22.70;83.20;;;;;;5121929;27;20228;-67
2021/03/30 11:48:46;;;;;;;2.40;2.20;;;22.70;80.80;;;;;;5117822;27;20215;-67
2021/03/30 11:51:12;;;;;;;4.10;2.03;;;22.70;81.30;;;;;;5119636;27;20179;-64
2021/03/30 11:53:40;;;;;;;3.17;2.83;;;22.80;82.90;;;;;;5116917;27;20289;-65
2021/03/30 11:56:05;;;;;;;4.13;3.43;;;22.70;85.90;;;;;;5122497;27;20814;-67
2021/03/30 11:58:31;;;;;;;3.17;2.60;;;22.00;87.80;;;;;;5113467;27;20676;-67
2021/03/30 12:00:58;;;;;;;5.00;3.27;;;21.80;86.90;;;;;;5126481;27;20190;-68
2021/03/30 12:03:23;;;;;;;8.83;7.70;;;21.90;89.70;;;;;;5108152;28;20196;-70
2021/03/30 12:05:49;;;;;;;4.77;3.17;;;21.70;88.80;;;;;;5120921;27;21380;-66
2021/03/30 12:08:14;;;;;;;5.27;3.07;;;22.10;88.90;;;;;;5131864;27;20728;-65
2021/03/30 12:10:40;;;;;;;6.80;3.17;;;22.60;85.80;;;;;;5124355;27;20187;-68
2021/03/30 12:13:05;;;;;;;3.17;2.93;;;23.30;81.50;;;;;;5103462;28;20204;-68
2021/03/30 12:15:31;;;;;;;3.97;3.17;;;23.50;78.40;;;;;;5131237;27;20180;-65
2021/03/30 12:17:57;;;;;;;5.80;3.27;;;23.50;78.20;;;;;;5124492;27;20199;-68
2021/03/30 12:20:23;;;;;;;3.27;2.97;;;22.90;81.00;;;;;;5119523;27;20445;-66
2021/03/30 12:22:48;;;;;;;4.10;3.37;;;23.10;81.50;;;;;;5118482;27;20187;-66
2021/03/30 12:25:14;;;;;;;4.43;3.50;;;23.30;75.70;;;;;;5123821;27;20553;-68
2021/03/30 12:27:40;;;;;;;3.93;3.10;;;23.40;78.00;;;;;;5111222;27;20222;-68
2021/03/30 12:30:06;;;;;;;6.43;3.90;;;23.20;80.00;;;;;;5117837;27;20222;-69
2021/03/30 12:32:32;;;;;;;2.73;2.47;;;21.50;83.50;;;;;;5127468;27;20427;-69
2021/03/30 12:34:57;;;;;;;4.47;2.97;;;22.00;79.50;;;;;;5113280;27;20416;-65
2021/03/30 12:37:23;;;;;;;5.60;4.30;;;22.30;82.20;;;;;;5121256;27;20180;-65
2021/03/30 12:39:49;;;;;;;2.60;2.20;;;22.10;81.20;;;;;;5119477;27;20213;-65
2021/03/30 12:42:14;;;;;;;4.83;3.17;;;22.30;83.60;;;;;;5122255;27;20183;-67
2021/03/30 12:44:40;;;;;;;3.30;2.87;;;22.70;81.30;;;;;;5123389;27;20195;-65
2021/03/30 12:47:05;;;;;;;4.40;2.50;;;22.60;80.10;;;;;;5119285;27;20219;-69
2021/03/30 12:49:31;;;;;;;4.87;3.03;;;22.90;74.80;;;;;;5118492;27;20203;-66
2021/03/30 12:51:57;;;;;;;6.90;2.47;;;22.90;78.40;;;;;;5110537;27;20585;-68
2021/03/30 12:54:22;;;;;;;4.37;2.57;;;22.40;80.70;;;;;;5117808;27;20203;-65
2021/03/30 12:56:48;;;;;;;4.27;2.90;;;22.40;77.30;;;;;;5124495;27;20205;-69
2021/03/30 12:59:14;;;;;;;4.40;3.93;;;22.50;78.30;;;;;;5106629;27;20210;-65